createdAt,value
2022-12-15T00:00:45.210Z,10.2
2022-12-15T00:01:53.564Z,10.2
2022-12-15T00:03:01.970Z,10.2
2022-12-15T00:04:10.481Z,10.3
2022-12-15T00:05:18.817Z,10.3
2022-12-15T00:06:27.253Z,10.3
2022-12-15T00:07:35.755Z,10.7
2022-12-15T00:08:44.121Z,10.7
2022-12-15T00:09:52.497Z,10.7
2022-12-15T00:11:01.047Z,10.9
2022-12-15T00:12:09.432Z,10.9
2022-12-15T00:13:17.780Z,10.9
2022-12-15T00:14:26.363Z,10.8
2022-12-15T00:15:34.802Z,10.8
2022-12-15T00:16:43.119Z,10.8
2022-12-15T00:17:51.715Z,10.8
2022-12-15T00:19:00.069Z,10.8
2022-12-15T00:20:08.426Z,10.8
2022-12-15T00:21:17.000Z,10.5
2022-12-15T00:22:25.395Z,10.5
2022-12-15T00:23:33.839Z,10.5
2022-12-15T00:24:42.281Z,8.8
2022-12-15T00:25:50.628Z,8.8
2022-12-15T00:26:58.999Z,8.8
2022-12-15T00:28:07.550Z,9
2022-12-15T00:29:15.892Z,9
2022-12-15T00:30:24.228Z,9
2022-12-15T00:31:32.818Z,10.1
2022-12-15T00:32:41.159Z,10.1
2022-12-15T00:33:49.546Z,10.1
2022-12-15T00:34:58.088Z,8.2
2022-12-15T00:36:06.430Z,8.2
2022-12-15T00:37:14.791Z,8.2
2022-12-15T00:38:23.437Z,7.7
2022-12-15T00:39:31.733Z,7.7
2022-12-15T00:40:40.083Z,7.7
2022-12-15T00:41:48.649Z,5.7
2022-12-15T00:42:57.051Z,5.7
2022-12-15T00:44:05.368Z,5.7
2022-12-15T00:45:13.913Z,4.8
2022-12-15T00:46:22.316Z,4.8
2022-12-15T00:47:30.639Z,4.8
2022-12-15T00:48:39.207Z,5.2
2022-12-15T00:49:47.581Z,5.2
2022-12-15T00:50:55.943Z,5.2
2022-12-15T00:52:04.515Z,5.4
2022-12-15T00:53:12.864Z,5.4
2022-12-15T00:54:21.236Z,5.4
2022-12-15T00:55:29.799Z,5.6
2022-12-15T00:56:38.164Z,5.6
2022-12-15T00:57:46.519Z,5.6
2022-12-15T00:58:55.077Z,5.8
2022-12-15T01:00:03.465Z,5.8
2022-12-15T01:01:11.863Z,5.8
2022-12-15T01:02:20.633Z,5.2
2022-12-15T01:03:29.376Z,5.2
2022-12-15T01:04:37.138Z,5.2
2022-12-15T01:05:45.737Z,6.3
2022-12-15T01:06:54.098Z,6.3
2022-12-15T01:08:02.456Z,6.3
2022-12-15T01:09:11.024Z,6.9
2022-12-15T01:10:19.457Z,6.9
2022-12-15T01:11:27.729Z,6.9
2022-12-15T01:12:36.297Z,6.5
2022-12-15T01:13:44.673Z,6.5
2022-12-15T01:14:53.004Z,6.5
2022-12-15T01:16:01.596Z,6.3
2022-12-15T01:17:09.952Z,6.3
2022-12-15T01:18:18.290Z,6.3
2022-12-15T01:19:26.836Z,6.4
2022-12-15T01:20:35.190Z,6.4
2022-12-15T01:21:43.554Z,6.4
2022-12-15T01:22:52.137Z,6.4
2022-12-15T01:24:00.474Z,6.4
2022-12-15T01:25:08.841Z,6.4
2022-12-15T01:26:17.430Z,6.9
2022-12-15T01:27:25.772Z,6.9
2022-12-15T01:28:34.129Z,6.9
2022-12-15T01:29:42.674Z,6.6
2022-12-15T01:30:51.026Z,6.6
2022-12-15T01:31:59.470Z,6.6
2022-12-15T01:33:07.957Z,6.2
2022-12-15T01:34:16.323Z,6.2
2022-12-15T01:35:24.670Z,6.2
2022-12-15T01:36:33.248Z,6.2
2022-12-15T01:37:41.616Z,6.2
2022-12-15T01:38:53.993Z,6.2
2022-12-15T01:39:58.549Z,5.4
2022-12-15T01:41:06.891Z,5.4
2022-12-15T01:42:15.317Z,5.4
2022-12-15T01:43:23.840Z,5.8
2022-12-15T01:44:32.205Z,5.8
2022-12-15T01:45:40.558Z,5.8
2022-12-15T01:46:49.186Z,5.3
2022-12-15T01:47:57.482Z,5.3
2022-12-15T01:49:05.820Z,5.3
2022-12-15T01:50:14.369Z,5.5
2022-12-15T01:51:22.752Z,5.5
2022-12-15T01:52:31.226Z,5.5
2022-12-15T01:53:39.769Z,4.9
2022-12-15T01:54:48.582Z,4.9
2022-12-15T01:55:56.457Z,4.9
2022-12-15T01:57:05.039Z,5.1
2022-12-15T01:58:13.537Z,5.1
2022-12-15T01:59:21.731Z,5.1
2022-12-15T02:00:30.357Z,4.3
2022-12-15T02:01:38.689Z,4.3
2022-12-15T02:02:47.052Z,4.3
2022-12-15T02:03:55.530Z,4.5
2022-12-15T02:05:03.899Z,4.5
2022-12-15T02:06:12.273Z,4.5
2022-12-15T02:07:20.826Z,4.7
2022-12-15T02:08:29.210Z,4.7
2022-12-15T02:09:37.559Z,4.7
2022-12-15T02:10:46.128Z,4.5
2022-12-15T02:11:54.483Z,4.5
2022-12-15T02:13:02.818Z,4.5
2022-12-15T02:14:11.407Z,4.6
2022-12-15T02:15:19.732Z,4.6
2022-12-15T02:16:28.131Z,4.6
2022-12-15T02:17:36.643Z,3.7
2022-12-15T02:18:44.983Z,3.7
2022-12-15T02:19:53.333Z,3.7
2022-12-15T02:21:01.888Z,2.8
2022-12-15T02:22:10.259Z,2.8
2022-12-15T02:23:18.598Z,2.8
2022-12-15T02:24:27.151Z,2.6
2022-12-15T02:25:35.516Z,2.6
2022-12-15T02:26:43.855Z,2.6
2022-12-15T02:27:52.419Z,2.3
2022-12-15T02:29:00.767Z,2.3
2022-12-15T02:30:09.136Z,2.3
2022-12-15T02:31:17.695Z,2.4
2022-12-15T02:32:26.015Z,2.4
2022-12-15T02:33:34.657Z,2.4
2022-12-15T02:34:42.932Z,2.2
2022-12-15T02:35:51.294Z,2.2
2022-12-15T02:36:59.677Z,2.2
2022-12-15T02:38:08.234Z,2.5
2022-12-15T02:39:16.609Z,2.5
2022-12-15T02:40:24.980Z,2.5
2022-12-15T02:41:33.573Z,2.4
2022-12-15T02:42:41.928Z,2.4
2022-12-15T02:43:50.281Z,2.4
2022-12-15T02:44:58.849Z,2.3
2022-12-15T02:46:07.274Z,2.3
2022-12-15T02:47:15.595Z,2.3
2022-12-15T02:48:24.160Z,2.6
2022-12-15T02:49:32.518Z,2.6
2022-12-15T02:50:40.853Z,2.6
2022-12-15T02:51:49.412Z,2.6
2022-12-15T02:52:57.769Z,2.6
2022-12-15T02:54:06.150Z,2.6
2022-12-15T02:55:14.702Z,5.3
2022-12-15T02:56:23.064Z,5.3
2022-12-15T02:57:31.419Z,5.3
2022-12-15T02:58:39.984Z,5.8
2022-12-15T02:59:48.332Z,5.8
2022-12-15T03:00:56.726Z,5.8
2022-12-15T03:02:05.554Z,5.5
2022-12-15T03:03:13.619Z,5.5
2022-12-15T03:04:21.960Z,5.5
2022-12-15T03:05:30.521Z,5
2022-12-15T03:06:38.880Z,5
2022-12-15T03:07:49.689Z,5
2022-12-15T03:08:55.802Z,3.6
2022-12-15T03:10:04.153Z,3.6
2022-12-15T03:11:12.510Z,3.6
2022-12-15T03:12:21.100Z,2.5
2022-12-15T03:13:29.864Z,2.5
2022-12-15T03:14:37.826Z,2.5
2022-12-15T03:15:46.389Z,2.6
2022-12-15T03:16:54.849Z,2.6
2022-12-15T03:18:03.134Z,2.6
2022-12-15T03:19:11.696Z,2.3
2022-12-15T03:20:20.018Z,2.3
2022-12-15T03:21:28.483Z,2.3
2022-12-15T03:22:37.047Z,2.1
2022-12-15T03:23:45.414Z,2.1
2022-12-15T03:24:53.738Z,2.1
2022-12-15T03:26:02.300Z,2
2022-12-15T03:27:10.668Z,2
2022-12-15T03:28:19.030Z,2
2022-12-15T03:29:27.611Z,2.1
2022-12-15T03:30:35.964Z,2.1
2022-12-15T03:31:44.417Z,2.1
2022-12-15T03:32:52.902Z,2.2
2022-12-15T03:34:01.298Z,2.2
2022-12-15T03:35:09.617Z,2.2
2022-12-15T03:36:18.159Z,1.7
2022-12-15T03:37:26.524Z,1.7
2022-12-15T03:38:34.881Z,1.7
2022-12-15T03:39:43.431Z,1.7
2022-12-15T03:40:51.816Z,1.7
2022-12-15T03:42:00.186Z,1.7
2022-12-15T03:43:08.760Z,1.7
2022-12-15T03:44:17.100Z,1.7
2022-12-15T03:45:25.448Z,1.7
2022-12-15T03:46:34.020Z,1.8
2022-12-15T03:47:42.401Z,1.8
2022-12-15T03:48:50.728Z,1.8
2022-12-15T03:49:59.312Z,1.6
2022-12-15T03:51:07.639Z,1.6
2022-12-15T03:52:16.119Z,1.6
2022-12-15T03:53:24.632Z,1.5
2022-12-15T03:54:32.976Z,1.5
2022-12-15T03:55:41.344Z,1.5
2022-12-15T03:56:49.876Z,1.6
2022-12-15T03:57:58.239Z,1.6
2022-12-15T03:59:06.577Z,1.6
2022-12-15T04:00:15.153Z,1.3
2022-12-15T04:01:23.629Z,1.3
2022-12-15T04:02:31.987Z,1.3
2022-12-15T04:03:40.497Z,1.4
2022-12-15T04:04:48.759Z,1.4
2022-12-15T04:05:57.140Z,1.4
2022-12-15T04:07:05.695Z,1.4
2022-12-15T04:08:14.039Z,1.4
2022-12-15T04:09:22.385Z,1.4
2022-12-15T04:10:34.207Z,1.4
2022-12-15T04:11:39.285Z,1.4
2022-12-15T04:12:47.680Z,1.4
2022-12-15T04:13:56.239Z,1.3
2022-12-15T04:15:04.589Z,1.3
2022-12-15T04:16:17.892Z,1.3
2022-12-15T04:17:21.525Z,1.6
2022-12-15T04:18:29.880Z,1.6
2022-12-15T04:19:38.224Z,1.6
2022-12-15T04:20:46.797Z,1.3
2022-12-15T04:21:55.194Z,1.3
2022-12-15T04:23:03.516Z,1.3
2022-12-15T04:24:12.073Z,1.1
2022-12-15T04:25:20.421Z,1.1
2022-12-15T04:26:28.799Z,1.1
2022-12-15T04:27:37.388Z,1.6
2022-12-15T04:28:45.750Z,1.6
2022-12-15T04:29:54.088Z,1.6
2022-12-15T04:31:02.788Z,1.3
2022-12-15T04:32:11.048Z,1.3
2022-12-15T04:33:19.406Z,1.3
2022-12-15T04:34:27.992Z,1.3
2022-12-15T04:35:36.450Z,1.3
2022-12-15T04:36:44.847Z,1.3
2022-12-15T04:37:53.707Z,1.9
2022-12-15T04:39:04.030Z,1.9
2022-12-15T04:40:12.368Z,1.9
2022-12-15T04:41:20.945Z,4.1
2022-12-15T04:42:29.290Z,4.1
2022-12-15T04:43:37.656Z,4.1
2022-12-15T04:44:49.945Z,2.1
2022-12-15T04:45:54.603Z,2.1
2022-12-15T04:47:02.897Z,2.1
2022-12-15T04:48:11.448Z,2.1
2022-12-15T04:49:19.789Z,2.1
2022-12-15T04:50:28.151Z,2.1
2022-12-15T04:51:36.703Z,1.8
2022-12-15T04:52:45.080Z,1.8
2022-12-15T04:53:53.649Z,1.8
2022-12-15T04:55:02.490Z,2.1
2022-12-15T04:56:15.095Z,2.1
2022-12-15T04:57:19.198Z,2.1
2022-12-15T04:58:27.766Z,2
2022-12-15T04:59:36.111Z,2
2022-12-15T05:00:44.453Z,2
2022-12-15T05:01:53.207Z,2
2022-12-15T05:03:01.385Z,2
2022-12-15T05:04:09.813Z,2
2022-12-15T05:05:18.308Z,2.2
2022-12-15T05:06:26.647Z,2.2
2022-12-15T05:07:35.010Z,2.2
2022-12-15T05:08:43.585Z,2.6
2022-12-15T05:09:51.977Z,2.6
2022-12-15T05:11:00.305Z,2.6
2022-12-15T05:12:08.845Z,2.3
2022-12-15T05:13:17.189Z,2.3
2022-12-15T05:14:25.555Z,2.3
2022-12-15T05:15:34.147Z,2.7
2022-12-15T05:16:42.516Z,2.7
2022-12-15T05:17:50.823Z,2.7
2022-12-15T05:18:59.365Z,2.6
2022-12-15T05:20:07.796Z,2.6
2022-12-15T05:21:16.180Z,2.6
2022-12-15T05:22:24.724Z,2.6
2022-12-15T05:23:33.444Z,2.6
2022-12-15T05:24:41.508Z,2.6
2022-12-15T05:25:50.109Z,3.4
2022-12-15T05:26:58.438Z,3.4
2022-12-15T05:28:06.780Z,3.4
2022-12-15T05:29:15.330Z,3.3
2022-12-15T05:30:23.684Z,3.3
2022-12-15T05:31:32.100Z,3.3
2022-12-15T05:32:40.575Z,3.5
2022-12-15T05:33:48.949Z,3.5
2022-12-15T05:34:57.285Z,3.5
2022-12-15T05:36:05.850Z,4
2022-12-15T05:37:14.203Z,4
2022-12-15T05:38:22.550Z,4
2022-12-15T05:39:31.125Z,13.5
2022-12-15T05:40:39.451Z,13.5
2022-12-15T05:41:47.829Z,13.5
2022-12-15T05:42:56.373Z,15
2022-12-15T05:44:04.739Z,15
2022-12-15T05:45:13.071Z,15
2022-12-15T05:46:21.711Z,13.5
2022-12-15T05:47:29.984Z,13.5
2022-12-15T05:48:38.349Z,13.5
2022-12-15T05:49:46.909Z,6.6
2022-12-15T05:50:55.255Z,6.6
2022-12-15T05:52:03.602Z,6.6
2022-12-15T05:53:12.124Z,2.9
2022-12-15T05:54:20.470Z,2.9
2022-12-15T05:55:28.811Z,2.9
2022-12-15T05:56:37.351Z,2.9
2022-12-15T05:57:45.717Z,2.9
2022-12-15T05:58:54.023Z,2.9
2022-12-15T06:00:02.583Z,3.3
2022-12-15T06:01:10.911Z,3.3
2022-12-15T06:02:19.356Z,3.3
2022-12-15T06:03:28.158Z,3.8
2022-12-15T06:04:36.204Z,3.8
2022-12-15T06:05:44.519Z,3.8
2022-12-15T06:06:53.099Z,4.4
2022-12-15T06:08:01.473Z,4.4
2022-12-15T06:09:09.811Z,4.4
2022-12-15T06:10:18.363Z,5.1
2022-12-15T06:11:26.714Z,5.1
2022-12-15T06:12:35.044Z,5.1
2022-12-15T06:13:43.758Z,5.1
2022-12-15T06:14:51.971Z,5.1
2022-12-15T06:16:00.367Z,5.1
2022-12-15T06:17:08.856Z,5.6
2022-12-15T06:18:17.197Z,5.6
2022-12-15T06:19:25.528Z,5.6
2022-12-15T06:20:34.062Z,4.9
2022-12-15T06:21:42.406Z,4.9
2022-12-15T06:22:50.749Z,4.9
2022-12-15T06:23:59.297Z,6.3
2022-12-15T06:25:07.634Z,6.3
2022-12-15T06:26:15.977Z,6.3
2022-12-15T06:27:24.530Z,5.6
2022-12-15T06:28:32.869Z,5.6
2022-12-15T06:29:41.252Z,5.6
2022-12-15T06:30:49.771Z,14.3
2022-12-15T06:31:58.116Z,14.3
2022-12-15T06:33:06.444Z,14.3
2022-12-15T06:34:14.988Z,5.6
2022-12-15T06:35:23.334Z,5.6
2022-12-15T06:36:31.666Z,5.6
2022-12-15T06:37:40.216Z,3.9
2022-12-15T06:38:49.799Z,3.9
2022-12-15T06:39:56.887Z,3.9
2022-12-15T06:41:05.441Z,3.7
2022-12-15T06:42:13.780Z,3.7
2022-12-15T06:43:22.117Z,3.7
2022-12-15T06:44:30.666Z,4
2022-12-15T06:45:39.021Z,4
2022-12-15T06:46:47.366Z,4
2022-12-15T06:48:01.058Z,3.8
2022-12-15T06:49:04.220Z,3.8
2022-12-15T06:50:12.569Z,3.8
2022-12-15T06:51:21.085Z,2.9
2022-12-15T06:52:29.482Z,2.9
2022-12-15T06:53:37.809Z,2.9
2022-12-15T06:54:46.371Z,2.7
2022-12-15T06:55:54.715Z,2.7
2022-12-15T06:57:03.045Z,2.7
2022-12-15T06:58:11.594Z,3.2
2022-12-15T06:59:19.937Z,3.2
2022-12-15T07:00:28.257Z,3.2
2022-12-15T07:01:36.975Z,3.7
2022-12-15T07:02:48.265Z,3.7
2022-12-15T07:03:53.665Z,3.7
2022-12-15T07:05:02.031Z,5.9
2022-12-15T07:06:10.371Z,5.9
2022-12-15T07:07:18.712Z,5.9
2022-12-15T07:08:31.487Z,38.799999
2022-12-15T07:09:35.596Z,38.799999
2022-12-15T07:10:43.924Z,38.799999
2022-12-15T07:11:52.469Z,27.799999
2022-12-15T07:13:00.809Z,27.799999
2022-12-15T07:14:09.139Z,27.799999
2022-12-15T07:15:17.679Z,28
2022-12-15T07:16:26.039Z,28
2022-12-15T07:17:34.381Z,28
2022-12-15T07:18:42.885Z,51
2022-12-15T07:19:51.219Z,51
2022-12-15T07:20:59.547Z,51
2022-12-15T07:22:08.132Z,38.200001
2022-12-15T07:23:16.456Z,38.200001
2022-12-15T07:24:24.785Z,38.200001
2022-12-15T07:25:33.326Z,21.5
2022-12-15T07:26:41.680Z,21.5
2022-12-15T07:27:49.998Z,21.5
2022-12-15T07:28:58.538Z,6.4
2022-12-15T07:30:06.860Z,6.4
2022-12-15T07:31:15.241Z,6.4
2022-12-15T07:32:23.753Z,4.1
2022-12-15T07:33:32.522Z,4.1
2022-12-15T07:34:40.415Z,4.1
2022-12-15T07:35:48.952Z,9.4
2022-12-15T07:36:57.326Z,9.4
2022-12-15T07:38:05.670Z,9.4
2022-12-15T07:39:14.231Z,14.2
2022-12-15T07:40:22.578Z,14.2
2022-12-15T07:41:30.895Z,14.2
2022-12-15T07:42:39.449Z,15.4
2022-12-15T07:43:48.125Z,15.4
2022-12-15T07:44:56.121Z,15.4
2022-12-15T07:46:04.777Z,14
2022-12-15T07:47:12.998Z,14
2022-12-15T07:48:21.330Z,14
2022-12-15T07:49:29.900Z,12.4
2022-12-15T07:50:38.204Z,12.4
2022-12-15T07:51:46.545Z,12.4
2022-12-15T07:52:55.090Z,10.1
2022-12-15T07:54:03.424Z,10.1
2022-12-15T07:55:11.760Z,10.1
2022-12-15T07:56:20.316Z,9.2
2022-12-15T07:57:28.683Z,9.2
2022-12-15T07:58:37.019Z,9.2
2022-12-15T07:59:45.578Z,7.9
2022-12-15T08:00:53.977Z,7.9
2022-12-15T08:02:02.490Z,7.9
2022-12-15T08:03:10.943Z,9.3
2022-12-15T08:04:19.163Z,9.3
2022-12-15T08:05:27.529Z,9.3
2022-12-15T08:06:36.029Z,6.3
2022-12-15T08:07:44.371Z,6.3
2022-12-15T08:08:52.695Z,6.3
2022-12-15T08:10:01.233Z,6.8
2022-12-15T08:11:09.575Z,6.8
2022-12-15T08:12:17.901Z,6.8
2022-12-15T08:14:00.521Z,7.5
2022-12-15T08:14:34.780Z,7.5
2022-12-15T08:15:43.123Z,7.5
2022-12-15T08:16:51.699Z,6.9
2022-12-15T08:18:00.003Z,6.9
2022-12-15T08:19:08.338Z,6.9
2022-12-15T08:20:16.876Z,5
2022-12-15T08:21:25.238Z,5
2022-12-15T08:22:33.547Z,5
2022-12-15T08:23:42.092Z,4.8
2022-12-15T08:24:50.423Z,4.8
2022-12-15T08:25:58.745Z,4.8
2022-12-15T08:27:07.308Z,4.4
2022-12-15T08:28:15.646Z,4.4
2022-12-15T08:29:49.961Z,4.4
2022-12-15T08:30:32.535Z,6
2022-12-15T08:31:40.922Z,6
2022-12-15T08:32:51.987Z,6
2022-12-15T08:33:57.779Z,8.9
2022-12-15T08:35:15.569Z,8.9
2022-12-15T08:36:14.494Z,8.9
2022-12-15T08:37:23.103Z,7.5
2022-12-15T08:38:31.425Z,7.5
2022-12-15T08:39:39.747Z,7.5
2022-12-15T08:40:48.310Z,6.6
2022-12-15T08:41:56.656Z,6.6
2022-12-15T08:43:05.004Z,6.6
2022-12-15T08:44:13.556Z,8.6
2022-12-15T08:45:21.895Z,8.6
2022-12-15T08:46:30.300Z,8.6
2022-12-15T08:47:38.808Z,9.9
2022-12-15T08:48:47.141Z,9.9
2022-12-15T08:49:55.492Z,9.9
2022-12-15T08:51:04.026Z,9.3
2022-12-15T08:52:12.383Z,9.3
2022-12-15T08:53:32.963Z,9.3
2022-12-15T08:54:29.257Z,6.3
2022-12-15T08:55:37.594Z,6.3
2022-12-15T08:56:45.939Z,6.3
2022-12-15T08:57:54.492Z,10.4
2022-12-15T08:59:02.830Z,10.4
2022-12-15T09:00:11.175Z,10.4
2022-12-15T09:01:23.105Z,8.4
2022-12-15T09:02:28.254Z,8.4
2022-12-15T09:03:36.667Z,8.4
2022-12-15T09:04:45.042Z,5.6
2022-12-15T09:05:53.316Z,5.6
2022-12-15T09:07:01.669Z,5.6
2022-12-15T09:08:10.224Z,5
2022-12-15T09:09:18.672Z,5
2022-12-15T09:10:26.902Z,5
2022-12-15T09:11:35.438Z,4.2
2022-12-15T09:12:43.781Z,4.2
2022-12-15T09:13:52.102Z,4.2
2022-12-15T09:15:00.649Z,4.3
2022-12-15T09:16:10.607Z,4.3
2022-12-15T09:17:17.387Z,4.3
2022-12-15T09:18:25.880Z,5
2022-12-15T09:19:34.216Z,5
2022-12-15T09:20:42.554Z,5
2022-12-15T09:21:51.110Z,5.1
2022-12-15T09:22:59.459Z,5.1
2022-12-15T09:24:07.802Z,5.1
2022-12-15T09:25:16.368Z,4.6
2022-12-15T09:26:24.670Z,4.6
2022-12-15T09:27:33.017Z,4.6
2022-12-15T09:28:41.549Z,4.9
2022-12-15T09:29:49.879Z,4.9
2022-12-15T09:30:58.335Z,4.9
2022-12-15T09:32:12.244Z,3.7
2022-12-15T09:33:15.108Z,3.7
2022-12-15T09:34:23.441Z,3.7
2022-12-15T09:35:31.984Z,3.8
2022-12-15T09:36:40.315Z,3.8
2022-12-15T09:37:51.819Z,3.8
2022-12-15T09:38:57.233Z,5.3
2022-12-15T09:40:05.557Z,5.3
2022-12-15T09:41:13.932Z,5.3
2022-12-15T09:42:22.450Z,4.1
2022-12-15T09:43:35.351Z,4.1
2022-12-15T09:44:39.109Z,4.1
2022-12-15T09:45:47.832Z,3.5
2022-12-15T09:46:55.992Z,3.5
2022-12-15T09:48:04.348Z,3.5
2022-12-15T09:49:12.893Z,3.2
2022-12-15T09:50:21.233Z,3.2
2022-12-15T09:51:29.566Z,3.2
2022-12-15T09:52:38.133Z,3.1
2022-12-15T09:53:55.332Z,3.1
2022-12-15T09:54:54.908Z,3.1
2022-12-15T09:56:03.380Z,3.2
2022-12-15T09:57:11.750Z,3.2
2022-12-15T09:58:20.074Z,3.2
2022-12-15T09:59:28.675Z,3.4
2022-12-15T10:00:37.017Z,3.4
2022-12-15T10:01:45.356Z,3.4
2022-12-15T10:02:54.041Z,3.8
2022-12-15T10:04:02.368Z,3.8
2022-12-15T10:05:10.587Z,3.8
2022-12-15T10:06:21.398Z,4.7
2022-12-15T10:07:27.480Z,4.7
2022-12-15T10:08:35.814Z,4.7
2022-12-15T10:09:44.352Z,5.1
2022-12-15T10:10:52.703Z,5.1
2022-12-15T10:12:01.038Z,5.1
2022-12-15T10:13:09.589Z,5.8
2022-12-15T10:14:17.903Z,5.8
2022-12-15T10:15:26.324Z,5.8
2022-12-15T10:16:34.785Z,5.9
2022-12-15T10:17:43.134Z,5.9
2022-12-15T10:18:54.765Z,5.9
2022-12-15T10:20:00.012Z,5.7
2022-12-15T10:21:08.359Z,5.7
2022-12-15T10:22:16.710Z,5.7
2022-12-15T10:23:25.310Z,4
2022-12-15T10:25:41.945Z,4
2022-12-15T10:26:50.484Z,3.1
2022-12-15T10:27:58.848Z,3.1
2022-12-15T10:29:07.203Z,3.1
2022-12-15T10:30:15.795Z,3.5
2022-12-15T10:31:24.120Z,3.5
2022-12-15T10:32:32.413Z,3.5
2022-12-15T10:33:46.982Z,5.5
2022-12-15T10:34:49.356Z,5.5
2022-12-15T10:35:57.652Z,5.5
2022-12-15T10:37:06.217Z,5.2
2022-12-15T10:38:14.573Z,5.2
2022-12-15T10:39:22.910Z,5.2
2022-12-15T10:40:31.453Z,6.1
2022-12-15T10:41:39.797Z,6.1
2022-12-15T10:42:48.291Z,6.1
2022-12-15T10:43:56.760Z,5.5
2022-12-15T10:45:05.151Z,5.5
2022-12-15T10:46:13.580Z,5.5
2022-12-15T10:47:22.023Z,4.4
2022-12-15T10:48:30.376Z,4.4
2022-12-15T10:49:38.733Z,4.4
2022-12-15T10:50:47.266Z,2.3
2022-12-15T10:51:55.621Z,2.3
2022-12-15T10:53:03.968Z,2.3
2022-12-15T10:54:12.515Z,2.3
2022-12-15T10:55:20.882Z,2.3
2022-12-15T10:56:33.433Z,2.3
2022-12-15T10:57:37.840Z,1.9
2022-12-15T10:58:46.194Z,1.9
2022-12-15T10:59:54.540Z,1.9
2022-12-15T11:01:03.157Z,1.6
2022-12-15T11:02:11.630Z,1.6
2022-12-15T11:03:19.853Z,1.6
2022-12-15T11:04:28.389Z,1.6
2022-12-15T11:05:36.675Z,1.6
2022-12-15T11:06:45.033Z,1.6
2022-12-15T11:07:53.599Z,1.4
2022-12-15T11:09:01.940Z,1.4
2022-12-15T11:10:10.285Z,1.4
2022-12-15T11:11:18.838Z,1.8
2022-12-15T11:12:27.204Z,1.8
2022-12-15T11:13:35.624Z,1.8
2022-12-15T11:14:44.094Z,1.4
2022-12-15T11:15:52.447Z,1.4
2022-12-15T11:17:00.803Z,1.4
2022-12-15T11:18:09.339Z,1.3
2022-12-15T11:19:17.689Z,1.3
2022-12-15T11:20:26.023Z,1.3
2022-12-15T11:21:34.578Z,1.4
2022-12-15T11:22:42.937Z,1.4
2022-12-15T11:23:51.272Z,1.4
2022-12-15T11:24:59.820Z,1.7
2022-12-15T11:26:08.194Z,1.7
2022-12-15T11:27:16.523Z,1.7
2022-12-15T11:28:25.081Z,3.4
2022-12-15T11:29:33.429Z,3.4
2022-12-15T11:30:41.756Z,3.4
2022-12-15T11:31:50.288Z,3.7
2022-12-15T11:32:58.665Z,3.7
2022-12-15T11:34:06.991Z,3.7
2022-12-15T11:35:15.553Z,3.5
2022-12-15T11:36:23.915Z,3.5
2022-12-15T11:38:40.860Z,9.7
2022-12-15T11:39:49.232Z,9.7
2022-12-15T11:40:57.567Z,9.7
2022-12-15T11:42:06.182Z,6.8
2022-12-15T11:43:14.531Z,6.8
2022-12-15T11:44:22.882Z,6.8
2022-12-15T11:45:31.439Z,5.2
2022-12-15T11:46:39.794Z,5.2
2022-12-15T11:47:48.169Z,5.2
2022-12-15T11:48:56.769Z,4
2022-12-15T11:50:05.118Z,4
2022-12-15T11:51:13.522Z,4
2022-12-15T11:53:56.612Z,9
2022-12-15T11:55:04.978Z,9
2022-12-15T11:56:13.540Z,7
2022-12-15T11:57:21.892Z,7
2022-12-15T11:58:30.719Z,7
2022-12-15T11:59:38.810Z,5.1
2022-12-15T12:00:47.178Z,5.1
2022-12-15T12:02:00.884Z,5.1
2022-12-15T12:03:04.132Z,3.3
2022-12-15T12:04:12.445Z,3.3
2022-12-15T12:05:20.778Z,3.3
2022-12-15T12:06:29.349Z,3.3
2022-12-15T12:07:41.909Z,3.3
2022-12-15T12:08:46.042Z,3.3
2022-12-15T12:09:54.589Z,10.7
2022-12-15T12:11:03.024Z,10.7
2022-12-15T12:12:11.308Z,10.7
2022-12-15T12:13:19.869Z,14
2022-12-15T12:14:28.218Z,14
2022-12-15T12:15:36.565Z,14
2022-12-15T12:16:45.125Z,15.9
2022-12-15T12:17:53.483Z,15.9
2022-12-15T12:19:01.912Z,15.9
2022-12-15T12:20:11.563Z,30.6
2022-12-15T12:21:18.743Z,30.6
2022-12-15T12:22:27.093Z,30.6
2022-12-15T12:23:35.642Z,23.5
2022-12-15T12:24:43.981Z,23.5
2022-12-15T12:25:52.325Z,23.5
2022-12-15T12:27:00.877Z,72.599998
2022-12-15T12:28:09.221Z,72.599998
2022-12-15T12:29:17.577Z,72.599998
2022-12-15T12:30:26.152Z,3.6
2022-12-15T12:31:46.535Z,3.6
2022-12-15T12:32:54.921Z,3.6
2022-12-15T12:34:03.475Z,8.5
2022-12-15T12:35:32.431Z,8.5
2022-12-15T12:36:20.214Z,8.5
2022-12-15T12:37:28.744Z,5.2
2022-12-15T12:38:37.097Z,5.2
2022-12-15T12:39:45.438Z,5.2
2022-12-15T12:40:54.544Z,5.3
2022-12-15T12:42:02.364Z,5.3
2022-12-15T12:43:13.959Z,5.3
2022-12-15T12:44:19.244Z,5.9
2022-12-15T12:45:27.626Z,5.9
2022-12-15T12:46:35.962Z,5.9
2022-12-15T12:47:44.532Z,5.1
2022-12-15T12:48:52.867Z,5.1
2022-12-15T12:50:01.208Z,5.1
2022-12-15T12:51:09.762Z,4.5
2022-12-15T12:52:18.143Z,4.5
2022-12-15T12:53:26.463Z,4.5
2022-12-15T12:54:35.043Z,4.8
2022-12-15T12:55:43.367Z,4.8
2022-12-15T12:56:51.716Z,4.8
2022-12-15T12:58:00.294Z,4.7
2022-12-15T12:59:08.658Z,4.7
2022-12-15T13:00:17.106Z,4.7
2022-12-15T13:01:25.741Z,7
2022-12-15T13:02:34.016Z,7
2022-12-15T13:03:42.274Z,7
2022-12-15T13:04:50.823Z,11.9
2022-12-15T13:05:59.166Z,11.9
2022-12-15T13:07:11.590Z,11.9
2022-12-15T13:08:16.094Z,6.8
2022-12-15T13:09:24.405Z,6.8
2022-12-15T13:10:32.767Z,6.8
2022-12-15T13:11:41.335Z,7.4
2022-12-15T13:12:51.834Z,7.4
2022-12-15T13:13:58.255Z,7.4
2022-12-15T13:15:06.833Z,7.6
2022-12-15T13:16:15.248Z,7.6
2022-12-15T13:17:27.608Z,7.6
2022-12-15T13:18:32.682Z,7.4
2022-12-15T13:19:40.633Z,7.4
2022-12-15T13:20:50.642Z,7.4
2022-12-15T13:21:57.528Z,8.1
2022-12-15T13:23:05.883Z,8.1
2022-12-15T13:24:14.254Z,8.1
2022-12-15T13:25:22.798Z,7.6
2022-12-15T13:26:31.131Z,7.6
2022-12-15T13:27:39.494Z,7.6
2022-12-15T13:28:48.038Z,8.3
2022-12-15T13:29:56.371Z,8.3
2022-12-15T13:31:06.540Z,8.3
2022-12-15T13:32:13.389Z,8.6
2022-12-15T13:33:21.627Z,8.6
2022-12-15T13:34:29.987Z,8.6
2022-12-15T13:35:38.521Z,9.4
2022-12-15T13:36:50.801Z,9.4
2022-12-15T13:37:55.234Z,9.4
2022-12-15T13:39:03.789Z,10.2
2022-12-15T13:40:12.236Z,10.2
2022-12-15T13:41:20.545Z,10.2
2022-12-15T13:42:34.478Z,9.6
2022-12-15T13:43:37.485Z,9.6
2022-12-15T13:44:45.844Z,9.6
2022-12-15T13:45:54.434Z,7.7
2022-12-15T13:47:02.765Z,7.7
2022-12-15T13:48:11.131Z,7.7
2022-12-15T13:49:19.682Z,7.1
2022-12-15T13:50:28.061Z,7.1
2022-12-15T13:51:36.404Z,7.1
2022-12-15T13:53:16.966Z,5.8
2022-12-15T13:53:53.325Z,5.8
2022-12-15T13:55:01.695Z,5.8
2022-12-15T13:56:10.451Z,5.1
2022-12-15T13:57:18.647Z,5.1
2022-12-15T13:58:27.006Z,5.1
2022-12-15T13:59:35.590Z,5.2
2022-12-15T14:00:43.925Z,5.2
2022-12-15T14:01:52.374Z,5.2
2022-12-15T14:03:00.956Z,5.7
2022-12-15T14:04:09.221Z,5.7
2022-12-15T14:05:17.596Z,5.7
2022-12-15T14:06:26.135Z,4.5
2022-12-15T14:07:34.529Z,4.5
2022-12-15T14:08:42.874Z,4.5
2022-12-15T14:09:51.463Z,3.8
2022-12-15T14:10:59.988Z,3.8
2022-12-15T14:12:08.382Z,3.8
2022-12-15T14:13:16.918Z,4.1
2022-12-15T14:14:25.283Z,4.1
2022-12-15T14:15:33.704Z,4.1
2022-12-15T14:16:43.253Z,4.4
2022-12-15T14:17:51.412Z,4.4
2022-12-15T14:18:59.783Z,4.4
2022-12-15T14:20:08.366Z,4.1
2022-12-15T14:21:16.700Z,4.1
2022-12-15T14:22:29.603Z,4.1
2022-12-15T14:23:34.034Z,3.8
2022-12-15T14:24:41.960Z,3.8
2022-12-15T14:25:50.325Z,3.8
2022-12-15T14:26:58.904Z,3.9
2022-12-15T14:28:10.718Z,3.9
2022-12-15T14:29:15.616Z,3.9
2022-12-15T14:30:24.165Z,3.8
2022-12-15T14:31:32.609Z,3.8
2022-12-15T15:03:08.695Z,3.5
2022-12-15T15:04:51.618Z,0
2022-12-15T15:06:00.014Z,0
2022-12-15T15:07:08.284Z,0
2022-12-15T15:08:16.839Z,7.7
2022-12-15T15:09:25.176Z,7.7
2022-12-15T15:10:33.521Z,7.7
2022-12-15T15:11:42.197Z,6
2022-12-15T15:12:50.536Z,6
2022-12-15T15:13:58.923Z,6
2022-12-15T15:15:07.467Z,10.4
2022-12-15T15:16:15.872Z,10.4
2022-12-15T15:17:24.165Z,10.4
2022-12-15T15:18:33.163Z,9.6
2022-12-15T15:19:41.115Z,9.6
2022-12-15T15:20:49.513Z,9.6
2022-12-15T15:21:58.035Z,7.1
2022-12-15T15:23:06.403Z,7.1
2022-12-15T15:24:14.757Z,7.1
2022-12-15T15:25:23.309Z,8.9
2022-12-15T15:26:31.769Z,8.9
2022-12-15T15:27:40.137Z,8.9
2022-12-15T15:28:49.119Z,9.6
2022-12-15T15:29:58.011Z,9.6
2022-12-15T15:31:06.605Z,9.6
2022-12-15T15:32:15.238Z,7.3
2022-12-15T15:33:24.151Z,7.3
2022-12-15T15:34:33.097Z,7.3
2022-12-15T15:35:41.861Z,6.2
2022-12-15T15:36:50.238Z,6.2
2022-12-15T15:37:58.577Z,6.2
2022-12-15T15:39:07.141Z,10.2
2022-12-15T15:40:15.499Z,10.2
2022-12-15T15:41:23.849Z,10.2
2022-12-15T15:42:32.982Z,7.9
2022-12-15T15:43:40.770Z,7.9
2022-12-15T15:44:49.122Z,7.9
2022-12-15T15:45:57.748Z,8.4
2022-12-15T15:47:06.038Z,8.4
2022-12-15T15:48:14.410Z,8.4
2022-12-15T15:49:22.968Z,7.7
2022-12-15T15:50:31.322Z,7.7
2022-12-15T15:51:39.674Z,7.7
2022-12-15T15:52:48.287Z,8.6
2022-12-15T15:53:56.599Z,8.6
2022-12-15T15:55:04.969Z,8.6
2022-12-15T15:56:13.555Z,6.8
2022-12-15T15:57:21.963Z,6.8
2022-12-15T15:58:30.689Z,6.8
2022-12-15T15:59:39.091Z,8.3
2022-12-15T16:00:47.442Z,8.3
2022-12-15T16:01:56.182Z,8.3
2022-12-15T16:03:04.648Z,7.3
2022-12-15T16:04:12.898Z,7.3
2022-12-15T16:05:21.253Z,7.3
2022-12-15T16:06:29.841Z,8.7
2022-12-15T16:07:38.263Z,8.7
2022-12-15T16:08:46.671Z,8.7
2022-12-15T16:09:55.254Z,8.3
2022-12-15T16:11:03.658Z,8.3
2022-12-15T16:12:12.067Z,8.3
2022-12-15T16:13:25.746Z,9.2
2022-12-15T16:14:29.175Z,9.2
2022-12-15T16:15:37.645Z,9.2
2022-12-15T16:16:46.247Z,7.3